Terminal Aerodrome Forecast
Issued by NWS Portland, OR

Home | Current Version | Previous Version | Text Only | Print | Product List | Glossary On
Versions: 1 2 3 4 5 6 7 8 9 10 11 12 13 14 15 16 17 18 19 20 21 22 23 24 25 26 27 28 29 30 31 32 33 34 35 36 37 38 39 40 41 42 43 44 45
000
FTUS46 KPQR 040706 AAD
TAFAST
TAF AMD
KAST 040706Z 0407/0506 13003KT P6SM SKC
     FM041100 13003KT 6SM BR FEW002 SCT004
      TEMPO 0411/0415 1SM BR SCT002 BKN004
     FM041500 VRB04KT 4SM BR SCT004 BKN008
     FM041630 VRB05KT P6SM SCT008 BKN015
     FM041800 30009KT P6SM VCSH FEW030 SCT050=

USA.gov is the U.S. government's official web portal to all federal, state and local government web resources and services.